ID Time Temp Humidity Light PM2.5 PM10 Voltage Extra Firmware Position Fcnt Gateways Distance RSSI LSNR Radiosettings
2020-11-11 12:45:33 16.4375°C -3.625% 3.36V 0,0,0,0,0,0,0,0,0,0,0,0 v255 No position 0 - -101 13 867.1Mhz, SF9BW125, 4/5CR
- -117 3.75 867.1Mhz, SF9BW125, 4/5CR
- -111 1.5 867.1Mhz, SF9BW125, 4/5CR
- -118 -6.5 867.1Mhz, SF9BW125, 4/5CR
- -120 -10 867.1Mhz, SF9BW125, 4/5CR
2020-11-05 18:25:56 14.125°C 17.625% 3.36V 0 v255 No position 0 - -91 13.5 867.1Mhz, SF9BW125, 4/5CR
- -109 2.8 867.1Mhz, SF9BW125, 4/5CR
- -119 -0.5 867.1Mhz, SF9BW125, 4/5CR
- -119 -1.5 867.1Mhz, SF9BW125, 4/5CR
- -119 -8.25 867.1Mhz, SF9BW125, 4/5CR
- -119 -9.2 867.1Mhz, SF9BW125, 4/5CR
- -119 -10.5 867.1Mhz, SF9BW125, 4/5CR
- -117 -12.2 867.1Mhz, SF9BW125, 4/5CR
2020-10-04 11:53:58 11.5625°C 113% 3.36V 10768,12,16195,118,18616,123,21570,128,31645,130,56096,131 v255 52.1338 / 6.71259 0 - -121 -13.8 867.1Mhz, SF9BW125, 4/5CR
2020-10-04 11:53:57 11.5625°C 113% 3.36V 10768,12,16195,118,18616,123,21570,128,31645,130,56096,131 v255 52.1338 / 6.71259 0 - -121 -13.5 867.1Mhz, SF9BW125, 4/5CR
2020-10-04 10:32:13 11°C 105.812% 3.03V 10879,12,16210,117,18380,123,21270,128,31185,130,60695,131 v255 52.1338 / 6.71255 96 - -116 -13.2 867.7Mhz, SF12BW125, 4/5CR
2020-10-04 10:15:47 11.9375°C 112.438% 3.35V 10750,12,16194,121,18220,123,21322,128,31331,130,64428,131 v255 52.1338 / 6.71252 95 - -118 -10.2 868.1Mhz, SF9BW125, 4/5CR
2020-10-04 09:59:48 11.875°C 108.75% 3.36V 10726,12,16177,123,18199,124,21318,128,31408,130,3106,131 v255 52.1338 / 6.71252 94 - -118 -11.8 867.5Mhz, SF9BW125, 4/5CR
2020-10-04 09:27:50 10.875°C 98.0625% 3.36V 10730,12,16172,118,18048,123,21031,128,30926,130,2036,131 v255 52.1338 / 6.71252 92 - -118 -10.8 867.3Mhz, SF9BW125, 4/5CR
2020-10-04 08:55:52 10.5625°C 98.0625% 3.35V 10799,12,16180,115,17794,121,20794,129,30531,130,62677,131 v255 52.1338 / 6.71252 90 - -119 -9.8 867.1Mhz, SF9BW125, 4/5CR
2020-10-04 07:51:56 10°C 99.4375% 3.36V 10803,12,16187,112,17812,120,20494,129,29836,130,58462,131 v255 52.1338 / 6.71252 86 - -120 -9.8 867.7Mhz, SF9BW125, 4/5CR
2020-10-04 06:48:00 10°C 103.125% 3.36V 10822,12,16210,111,17726,119,20314,129,29504,130,52773,131 v255 52.1338 / 6.71252 82 - -119 -8.2 867.3Mhz, SF9BW125, 4/5CR
- -119 -12 867.3Mhz, SF9BW125, 4/5CR
2020-10-04 06:32:02 10.0625°C 104.625% 3.36V 10823,12,16208,111,17701,119,20265,129,29389,130,53357,131 v255 52.1338 / 6.71252 81 - -112 -11.8 868.5Mhz, SF9BW125, 4/5CR
2020-10-04 05:44:05 9.875°C 102.25% 3.36V 10842,12,16206,110,17602,119,20149,129,29011,130,56318,131 v255 52.1338 / 6.71252 78 - -120 -10.8 867.9Mhz, SF9BW125, 4/5CR
2020-10-04 05:28:06 9.75°C 99% 3.35V 10828,12,16202,110,17666,119,20088,129,28984,130,55187,131 v255 52.1338 / 6.71252 77 - -118 -9.5 868.1Mhz, SF9BW125, 4/5CR
2020-10-04 05:12:07 9.75°C 100.125% 3.36V 10827,12,16198,109,17645,119,20026,129,28866,131,52684,131 v255 52.1338 / 6.71252 76 - -118 -11.5 867.7Mhz, SF9BW125, 4/5CR
2020-10-04 04:40:09 9.625°C 101.25% 3.36V 10850,12,16202,108,17447,118,19868,129,28584,131,51529,131 v255 52.1338 / 6.71252 74 - -120 -9.5 867.5Mhz, SF9BW125, 4/5CR
2020-10-04 04:24:11 9.625°C 100.688% 3.36V 10847,12,16193,108,17452,118,19811,129,28505,131,51359,131 v255 52.1338 / 6.71252 73 - -112 -9.2 868.3Mhz, SF9BW125, 4/5CR
2020-10-04 04:08:12 9.4375°C 98.875% 3.36V 10858,12,16200,108,17467,119,19761,129,28414,131,51845,131 v255 52.1338 / 6.71252 72 - -119 -11.8 867.3Mhz, SF9BW125, 4/5CR
2020-10-04 03:36:14 9.5625°C 94.3125% 3.36V 10851,12,16188,109,17433,119,19648,129,28294,131,54232,131 v255 52.1338 / 6.71252 70 - -120 -2.5 867.1Mhz, SF9BW125, 4/5CR
2020-10-04 03:04:16 9.125°C 91.25% 3.36V 10856,12,16192,108,17227,118,19522,129,28124,131,51398,131 v255 52.1338 / 6.71252 68 - -120 -9.5 867.9Mhz, SF9BW125, 4/5CR
2020-10-04 02:32:19 8.75°C 91.9375% 3.36V 10868,12,16198,105,17083,118,19341,130,27602,131,48331,131 v255 52.1338 / 6.71252 66 - -119 -6.5 867.7Mhz, SF9BW125, 4/5CR
2020-10-04 02:00:21 8.8125°C 92.0625% 3.36V 10876,12,16184,107,16924,118,19281,130,27568,131,49456,131 v255 52.1338 / 6.71252 64 - -113 -10 867.5Mhz, SF9BW125, 4/5CR
2020-10-04 01:28:23 9°C 92.5% 3.36V 10877,12,16181,109,16902,119,19156,130,27516,131,50740,131 v255 52.1338 / 6.71252 62 - -117 -12 867.3Mhz, SF9BW125, 4/5CR
2020-10-04 00:56:26 8.5625°C 93.25% 3.36V 10894,12,16181,105,16796,118,18971,130,27022,131,46245,131 v255 52.1338 / 6.71252 60 - -118 -9.5 867.1Mhz, SF9BW125, 4/5CR
2020-10-04 00:40:27 8.875°C 93.4375% 3.36V 10909,12,16191,108,16837,119,18979,130,27063,131,47075,131 v255 52.1338 / 6.71252 59 - -118 -10.2 868.1Mhz, SF9BW125, 4/5CR
2020-10-03 22:48:35 8.3125°C 102.125% 3.36V 10935,12,16163,103,16653,118,18184,130,25794,131,39258,132 v255 52.1338 / 6.71252 52 - -119 -10 867.3Mhz, SF9BW125, 4/5CR
2020-10-03 21:28:40 8.125°C 105.812% 3.36V 10988,12,16175,100,17360,119,18200,130,25375,132,37085,132 v255 52.1338 / 6.71252 47 - -118 -11.5 868.1Mhz, SF9BW125, 4/5CR
2020-10-03 19:36:48 10.3125°C 102.875% 3.36V 10969,12,16190,113,17539,125,17482,130,25344,131,41907,131 v255 52.1338 / 6.71252 40 - -119 -11.2 867.1Mhz, SF9BW125, 4/5CR
2020-10-03 18:16:53 11°C 102.688% 3.36V 10993,12,16123,116,18053,127,23867,130,42811,131,34717,131 v255 52.1338 / 6.71252 35 - -118 -10 868.1Mhz, SF9BW125, 4/5CR
2020-10-03 18:00:54 11.0625°C 103.25% 3.36V 11055,12,16125,117,18160,127,24768,130,22315,131,726,131 v255 52.1338 / 6.71252 34 - -120 -13.5 867.5Mhz, SF9BW125, 4/5CR
2020-10-03 16:56:58 11.875°C 101.5% 3.36V 11027,12,16119,120,0,128,0,130,26778,131,38739,131 v255 52.1338 / 6.71252 30 - -120 -7 867.1Mhz, SF9BW125, 4/5CR
2020-10-03 16:24:59 12.3125°C 102.125% 3.36V 10977,12,16106,122,51501,129,19245,130,26362,131,28013,131 v255 52.1338 / 6.71252 28 - -118 -13.2 867.9Mhz, SF9BW125, 4/5CR
2020-10-03 15:21:03 13.375°C 106% 3.36V 11013,12,16113,125,57411,132,19440,130,26891,131,28799,131 v255 52.1338 / 6.71252 24 - -120 -9 867.5Mhz, SF9BW125, 4/5CR
2020-10-03 15:05:03 13.9375°C 109.875% 3.36V 11011,12,16108,127,7174,132,19504,130,27037,131,29043,131 v255 52.1338 / 6.71252 23 - -114 -1.8 868.1Mhz, SF9BW125, 4/5CR
- -121 -13 868.1Mhz, SF9BW125, 4/5CR
2020-10-03 14:49:04 14.75°C 113.75% 3.36V 11009,12,16093,131,3107,134,19690,130,27299,131,29601,131 v255 52.1338 / 6.71252 22 - -119 -9.8 867.3Mhz, SF9BW125, 4/5CR
- -118 -10.8 867.3Mhz, SF9BW125, 4/5CR
2020-10-03 14:33:04 15.4375°C 117.5% 3.36V 11028,12,16090,134,0,135,19839,130,27502,131,30017,131 v255 52.1338 / 6.71252 21 - -118 -13 868.5Mhz, SF9BW125, 4/5CR
2020-10-03 14:17:05 16.25°C 118.688% 3.35V 11022,12,16094,139,0,137,20041,130,28059,131,31015,131 v255 52.1338 / 6.71252 20 - -120 -11.2 867.1Mhz, SF9BW125, 4/5CR
- -121 -11.5 867.1Mhz, SF9BW125, 4/5CR
2020-10-03 14:01:05 16.625°C 117.625% 3.35V 11051,12,16084,141,0,138,20081,130,28100,131,31316,131 v255 52.1338 / 6.71252 19 - -120 -12.8 868.3Mhz, SF9BW125, 4/5CR
2020-10-03 13:45:06 17.3125°C 118.25% 3.35V 11027,12,16075,148,0,140,20229,130,28471,131,32307,131 v255 52.1338 / 6.71252 18 - -120 -8.5 867.9Mhz, SF9BW125, 4/5CR
2020-10-03 13:29:06 18.75°C 116.5% 3.35V 10965,12,16070,163,0,143,20690,130,29957,132,38471,131 v255 52.1338 / 6.71252 17 - -117 -12 868.1Mhz, SF9BW125, 4/5CR
- -119 -13.5 868.1Mhz, SF9BW125, 4/5CR
2020-10-03 13:13:06 18.25°C 117.25% 3.35V 10933,12,16084,158,0,140,20525,130,29583,131,36647,131 v255 52.1338 / 6.71252 16 - -120 -11.2 867.7Mhz, SF9BW125, 4/5CR
2020-10-03 12:41:06 18°C 117.562% 3.35V 10933,12,16099,155,0,139,20409,130,29234,131,35206,131 v255 52.1338 / 6.71252 14 - -118 -10.5 867.5Mhz, SF9BW125, 4/5CR
2020-10-03 12:09:07 17.375°C 116.938% 3.35V 10938,12,16110,153,0,138,20347,130,29205,131,34150,131 v255 52.1338 / 6.71252 12 - -118 -6.2 867.3Mhz, SF9BW125, 4/5CR
- -119 -11.2 867.3Mhz, SF9BW125, 4/5CR
2020-10-03 11:37:08 17.125°C 117.625% 3.35V 10886,12,16089,158,0,137,20324,130,29583,131,36157,131 v255 52.1338 / 6.71252 10 - -119 -8.2 867.1Mhz, SF9BW125, 4/5CR
2020-10-03 11:21:08 17.25°C 117.5% 3.35V 10812,12,16070,162,0,137,20313,130,29345,131,38838,131 v255 52.1338 / 6.71252 9 - -115 -13.5 868.5Mhz, SF9BW125, 4/5CR
2020-10-03 10:33:09 15.125°C 116.875% 3.35V 10718,12,16045,143,38766,131,20032,130,27983,131,36398,131 v255 52.1338 / 6.71252 6 - -117 -8.5 867.7Mhz, SF9BW125, 4/5CR
- -119 -15 867.7Mhz, SF9BW125, 4/5CR
2020-10-03 10:17:10 14.5625°C 114.75% 3.35V 10705,12,16028,138,30640,129,19891,130,27638,131,35182,131 v255 52.1338 / 6.71252 5 - -119 -6 868.1Mhz, SF9BW125, 4/5CR
2020-10-03 10:01:11 13.6875°C 111.625% 3.35V 10724,12,16051,128,26901,127,19670,129,27070,131,33259,131 v255 52.1338 / 6.71252 4 - -120 -8.8 867.5Mhz, SF9BW125, 4/5CR
2020-10-03 09:45:11 13.375°C 110.5% 3.36V 10724,12,16045,126,26057,126,19623,129,26970,131,32959,131 v255 52.1338 / 6.71252 3 - -121 -12.5 868.5Mhz, SF9BW125, 4/5CR
2020-10-03 09:29:12 13.375°C 109.562% 3.35V 10731,12,16054,126,25926,126,19609,130,26966,131,32907,131 v255 52.1338 / 6.71252 2 - -120 -11.8 867.3Mhz, SF9BW125, 4/5CR
- -119 -12.8 867.3Mhz, SF9BW125, 4/5CR
2020-10-03 08:57:31 13.25°C 109.75% 3.24V 10733,12,16041,125,24637,125,19608,130,26879,131,34755,131 v255 52.1338 / 6.71252 0 - -119 -3 867.1Mhz, SF9BW125, 4/5CR
- -121 -13 867.1Mhz, SF9BW125, 4/5CR
2020-10-03 08:55:12 13.25°C 109.625% 3.21V 10741,12,16052,125,25262,125,19593,130,26899,131,33471,131 v255 52.1339 / 6.71255 85 - -117 -7.5 868.1Mhz, SF12BW125, 4/5CR
- -118 -16.8 868.1Mhz, SF12BW125, 4/5CR
2020-10-03 08:38:28 13.1875°C 109.5% 3.36V 10732,12,16046,124,25088,125,19586,130,26914,131,33381,131 v255 52.1338 / 6.71252 84 - -116 -6.5 867.5Mhz, SF9BW125, 4/5CR
2020-10-03 08:22:29 12.9375°C 107.438% 3.36V 10744,12,16045,123,24588,124,19564,130,26881,131,33885,131 v255 52.1338 / 6.71252 83 - -118 -12.5 868.5Mhz, SF9BW125, 4/5CR
2020-10-03 08:06:30 12.8125°C 107% 3.36V 10740,12,16045,122,24248,124,19536,130,26810,131,34645,131 v255 52.1338 / 6.71252 82 - -117 -5.8 867.3Mhz, SF9BW125, 4/5CR
- -119 -13 867.3Mhz, SF9BW125, 4/5CR
2020-10-03 07:34:31 12.6875°C 107.125% 3.36V 10766,12,16049,121,23981,124,19627,130,26861,131,34481,131 v255 52.1338 / 6.71252 80 - -121 -11 867.1Mhz, SF9BW125, 4/5CR
- -121 -13 867.1Mhz, SF9BW125, 4/5CR
2020-10-03 07:18:32 12.625°C 107% 3.35V 10767,12,16054,120,23949,123,19630,130,26838,131,34768,131 v255 52.1338 / 6.71252 79 - -118 -9.8 868.1Mhz, SF9BW125, 4/5CR
2020-10-03 07:02:33 12.6875°C 107.562% 3.35V 10758,12,16048,121,24296,124,19649,130,26915,131,35094,131 v255 52.1338 / 6.71252 78 - -117 -6.2 867.9Mhz, SF9BW125, 4/5CR
2020-10-03 06:46:34 12.75°C 107.875% 3.36V 10753,12,16048,121,24436,124,19656,130,26929,131,34133,131 v255 52.1338 / 6.71252 77 - -112 -11.8 868.5Mhz, SF9BW125, 4/5CR
2020-10-03 06:30:35 12.75°C 107.875% 3.36V 10756,12,16045,121,24485,124,19675,130,26984,131,34415,131 v255 52.1338 / 6.71252 76 - -114 0.8 867.7Mhz, SF9BW125, 4/5CR
2020-10-03 05:58:36 12.5625°C 107.312% 3.36V 10749,12,16043,120,24118,123,19670,130,26988,131,34470,131 v255 52.1338 / 6.71252 74 - -120 -4.2 867.5Mhz, SF9BW125, 4/5CR
2020-10-03 05:42:37 12.5625°C 107.562% 3.36V 10754,12,16030,119,23978,123,19663,130,26953,131,34478,131 v255 52.1338 / 6.71252 73 - -119 -5.2 868.1Mhz, SF9BW125, 4/5CR
2020-10-03 05:26:38 12.4375°C 106.875% 3.36V 10748,12,16037,119,23986,123,19641,130,26955,131,34508,131 v255 52.1338 / 6.71252 72 - -119 -5 867.3Mhz, SF9BW125, 4/5CR
- -119 -13 867.3Mhz, SF9BW125, 4/5CR
2020-10-03 04:54:40 12.5625°C 108.562% 3.36V 10765,12,16035,119,21474,123,19667,130,27071,131,34787,131 v255 52.1338 / 6.71252 70 - -121 -10.2 867.1Mhz, SF9BW125, 4/5CR
2020-10-03 04:06:42 12.6875°C 109.75% 3.36V 10762,12,16027,119,21438,123,19722,130,27101,131,35137,131 v255 52.1338 / 6.71252 67 - -120 -10.8 868.1Mhz, SF9BW125, 4/5CR
2020-10-03 03:50:43 12.9375°C 110.625% 3.35V 10758,12,16024,120,21492,124,19743,130,27197,131,35699,131 v255 52.1338 / 6.71252 66 - -119 -7.8 867.7Mhz, SF9BW125, 4/5CR
2020-10-03 03:34:44 12.9375°C 110.688% 3.36V 10763,12,16017,120,21626,124,19747,130,27253,131,35759,131 v255 52.1338 / 6.71252 65 - -119 -13.8 868.5Mhz, SF9BW125, 4/5CR
2020-10-03 03:18:45 12.9375°C 111.375% 3.36V 10766,12,16024,120,21564,124,19777,130,27273,131,36119,131 v255 52.1338 / 6.71252 64 - -120 -5.8 867.5Mhz, SF9BW125, 4/5CR
- -117 -14.2 867.5Mhz, SF9BW125, 4/5CR
2020-10-03 03:02:45 13°C 111.5% 3.36V 10768,12,16024,120,21594,124,19794,130,27322,131,36612,131 v255 52.1338 / 6.71252 63 - -119 -12.5 868.3Mhz, SF9BW125, 4/5CR
2020-10-03 02:46:46 13.125°C 112.125% 3.35V 10782,12,16032,121,21684,124,19839,130,27424,131,36963,131 v255 52.1338 / 6.71252 62 - -120 -11.2 867.3Mhz, SF9BW125, 4/5CR
- -118 -12.2 867.3Mhz, SF9BW125, 4/5CR
2020-10-03 02:30:47 13.375°C 113% 3.36V 10757,12,16026,123,21937,125,19872,130,27523,131,37147,131 v255 52.1338 / 6.71252 61 - -120 -12.2 868.1Mhz, SF9BW125, 4/5CR
2020-10-03 02:14:48 13.5°C 113.188% 3.36V 10747,12,16008,123,22064,125,19867,130,27596,131,37459,131 v255 52.1338 / 6.71252 60 - -121 -5.2 867.1Mhz, SF9BW125, 4/5CR
2020-10-03 01:58:48 13.5°C 113.312% 3.36V 10754,12,16016,123,22034,125,19893,130,27619,131,37343,131 v255 52.1338 / 6.71252 59 - -119 -10.5 868.5Mhz, SF9BW125, 4/5CR
2020-10-03 01:42:49 13.5625°C 113.75% 3.36V 10756,12,16020,123,22046,125,19908,130,27639,131,37559,131 v255 52.1338 / 6.71252 58 - -120 -3.5 867.9Mhz, SF9BW125, 4/5CR
2020-10-03 01:26:50 13.75°C 114.312% 3.36V 10761,12,16013,124,22294,126,19944,130,27762,131,37923,131 v255 52.1338 / 6.71252 57 - -118 -12.2 868.3Mhz, SF9BW125, 4/5CR
2020-10-03 00:38:52 13.875°C 114.125% 3.36V 10775,12,16011,125,22336,126,20025,130,27873,131,37932,131 v255 52.1338 / 6.71252 54 - -119 -13.5 867.5Mhz, SF9BW125, 4/5CR
2020-10-03 00:22:53 14°C 115.25% 3.36V 10784,12,16021,125,22423,126,20061,130,27926,131,38162,131 v255 52.1338 / 6.71252 53 - -119 -14 868.5Mhz, SF9BW125, 4/5CR
- -112 -14.8 868.5Mhz, SF9BW125, 4/5CR
2020-10-02 23:34:55 14.1875°C 116.312% 3.36V 10778,12,16023,125,22435,126,20153,130,28034,131,38792,131 v255 52.1338 / 6.71252 50 - -120 -5.2 867.1Mhz, SF9BW125, 4/5CR
2020-10-02 23:02:56 14.25°C 116.562% 3.35V 10798,12,16025,125,22597,126,20206,130,28134,131,38517,131 v255 52.1338 / 6.71252 48 - -118 -9.8 867.9Mhz, SF9BW125, 4/5CR
- -121 -12.2 867.9Mhz, SF9BW125, 4/5CR
2020-10-02 22:30:57 14.4375°C 117.188% 3.36V 10809,12,16025,127,22766,127,20283,130,28283,131,39288,131 v255 52.1338 / 6.71252 46 - -120 -7.5 867.7Mhz, SF9BW125, 4/5CR
- -120 -13 867.7Mhz, SF9BW125, 4/5CR
2020-10-02 21:58:59 14.75°C 117.062% 3.35V 10790,12,16014,128,23041,127,20354,130,28400,131,39517,131 v255 52.1338 / 6.71252 44 - -120 -6.5 867.5Mhz, SF9BW125, 4/5CR
2020-10-02 21:42:59 14.6875°C 117.312% 3.35V 10802,12,16019,127,22941,127,20357,130,28437,131,39733,131 v255 52.1338 / 6.71252 43 - -118 -12.8 868.1Mhz, SF9BW125, 4/5CR
2020-10-02 21:27:00 14.875°C 115% 3.36V 10812,12,16021,128,23066,127,20405,130,28528,131,39913,131 v255 52.1338 / 6.71252 42 - -118 -13.8 867.3Mhz, SF9BW125, 4/5CR
2020-10-02 21:11:01 14.875°C 117.062% 3.36V 10826,12,16026,128,22935,127,20419,130,28562,131,39762,131 v255 52.1338 / 6.71252 41 - -117 -13 868.5Mhz, SF9BW125, 4/5CR
2020-10-02 20:55:01 15°C 117.125% 3.36V 10828,12,16032,128,23079,127,20467,130,28632,131,39958,132 v255 52.1338 / 6.71252 40 - -121 -12.5 867.1Mhz, SF9BW125, 4/5CR
2020-10-02 20:39:02 15.0625°C 117.312% 3.36V 10761,12,16018,128,22754,127,20445,130,28606,132,40088,132 v255 52.1338 / 6.71252 39 - -118 -11.5 868.3Mhz, SF9BW125, 4/5CR
2020-10-02 20:23:02 15°C 118% 3.35V 10795,12,16026,127,22679,127,20463,130,28608,132,39783,132 v255 52.1338 / 6.71252 38 - -119 -9.8 867.9Mhz, SF9BW125, 4/5CR
2020-10-02 20:07:03 15°C 118.375% 3.36V 10781,12,16038,127,22570,127,20496,130,28690,132,39945,132 v255 52.1338 / 6.71252 37 - -119 -9.2 868.1Mhz, SF9BW125, 4/5CR
- -119 -13 868.1Mhz, SF9BW125, 4/5CR
2020-10-02 19:51:04 14.75°C 118.312% 3.35V 10814,12,16037,126,22385,127,20470,130,28585,132,39406,132 v255 52.1338 / 6.71252 36 - -117 -10.8 867.7Mhz, SF9BW125, 4/5CR
2020-10-02 19:35:04 15.25°C 117.75% 3.36V 10816,12,16033,128,22885,128,20542,130,28776,132,39806,132 v255 52.1338 / 6.71252 35 - -120 -11.2 868.5Mhz, SF9BW125, 4/5CR
2020-10-02 19:19:05 15.125°C -5.5625% 3.36V 10815,12,16040,127,22569,128,20560,130,28756,132,39861,132 v255 52.1338 / 6.71252 34 - -120 -12.5 867.5Mhz, SF9BW125, 4/5CR
2020-10-02 19:03:05 15.25°C 118.188% 3.36V 10809,12,16036,128,22717,128,20588,130,28827,132,40220,132 v255 52.1338 / 6.71252 33 - -119 -12 868.3Mhz, SF9BW125, 4/5CR
2020-10-02 18:47:06 15.5°C 117.062% 3.35V 10840,12,16038,129,23051,129,20660,130,28988,132,40656,132 v255 52.1338 / 6.71252 32 - -120 -12.5 867.3Mhz, SF9BW125, 4/5CR
2020-10-02 18:31:06 15.75°C 114.438% 3.35V 10916,12,16046,131,24135,130,20759,130,29105,132,41081,132 v255 52.1338 / 6.71252 31 - -117 -4 868.1Mhz, SF9BW125, 4/5CR
2020-10-02 18:15:07 15.9375°C 115% 3.36V 10917,12,16047,133,25269,131,20838,130,29313,132,41639,132 v255 52.1338 / 6.71252 30 - -120 -6.8 867.1Mhz, SF9BW125, 4/5CR
- -121 -11.8 867.1Mhz, SF9BW125, 4/5CR
2020-10-02 17:59:07 16°C 113.625% 3.35V 10928,12,16046,133,25964,131,20891,130,29390,132,41535,132 v255 52.1338 / 6.71252 29 - -112 -9.8 868.5Mhz, SF9BW125, 4/5CR
- -118 -12.5 868.5Mhz, SF9BW125, 4/5CR
2020-10-02 17:43:08 16°C 114.75% 3.35V 10945,12,16038,134,26747,132,20952,130,29522,132,41955,132 v255 52.1338 / 6.71252 28 - -117 -5.8 867.9Mhz, SF9BW125, 4/5CR
2020-10-02 16:39:09 16.5625°C 111.188% 3.36V 11053,12,16063,141,37232,135,21417,130,30559,132,44313,132 v255 52.1338 / 6.71252 24 - -120 -11.5 867.5Mhz, SF9BW125, 4/5CR
2020-10-02 16:23:10 16.875°C 111.375% 3.35V 11069,12,16063,143,41560,136,21590,130,30993,132,45510,132 v255 52.1338 / 6.71252 23 - -118 -12.2 868.5Mhz, SF9BW125, 4/5CR
2020-10-02 16:07:10 17.1875°C 110.875% 3.35V 11101,12,16066,146,43047,136,21820,130,31623,132,47093,132 v255 52.1338 / 6.71252 22 - -119 -12.2 867.3Mhz, SF9BW125, 4/5CR
- -118 -14.8 867.3Mhz, SF9BW125, 4/5CR
2020-10-02 15:51:10 17.25°C 108.875% 3.35V 11130,12,16066,148,42894,137,22016,130,32088,133,49842,132 v255 52.1338 / 6.71252 21 - -120 -12.2 868.3Mhz, SF9BW125, 4/5CR
- -113 -14.8 868.3Mhz, SF9BW125, 4/5CR
2020-10-02 15:35:11 17.25°C 107.938% 3.35V 11205,12,16065,149,59567,137,22288,130,32737,132,51085,132 v255 52.1338 / 6.71252 20 - -120 -11 867.1Mhz, SF9BW125, 4/5CR
- -120 -13 867.1Mhz, SF9BW125, 4/5CR
2020-10-02 15:19:11 17.625°C 110.625% 3.35V 11248,12,16043,153,14829,138,22710,129,34037,133,53385,132 v255 52.1338 / 6.71252 19 - -119 -10 868.1Mhz, SF9BW125, 4/5CR
2020-10-02 15:03:11 18°C 104.062% 3.35V 11226,12,16003,159,47934,139,23256,130,35289,133,56105,132 v255 52.1338 / 6.71252 18 - -120 -14.5 867.9Mhz, SF9BW125, 4/5CR
2020-10-02 13:59:12 18.375°C 109.812% 3.35V 11157,12,16103,172,45917,139,26197,129,41013,133,31228,132 v255 52.1338 / 6.71252 14 - -117 -9.8 867.5Mhz, SF9BW125, 4/5CR
2020-10-02 13:43:12 17.8125°C 108.312% 3.35V 11166,12,16145,169,33049,138,25863,129,40964,133,24213,132 v255 52.1338 / 6.71252 13 - -117 -6.5 868.1Mhz, SF9BW125, 4/5CR
2020-10-02 13:27:12 16.8125°C 113.062% 3.35V 11214,12,16185,158,30890,134,24774,129,38605,132,821,131 v255 52.1338 / 6.71252 12 - -118 -7.2 867.3Mhz, SF9BW125, 4/5CR
2020-10-02 13:11:13 17.25°C 105.312% 3.35V 11214,12,16166,165,32590,136,25036,129,40386,132,9534,132 v255 52.1338 / 6.71252 11 - -117 -12.2 868.5Mhz, SF9BW125, 4/5CR
2020-10-02 12:55:13 17.5625°C 108.5% 3.35V 11284,12,16179,170,25720,137,25092,129,42393,132,27257,132 v255 52.1338 / 6.71252 10 - -120 -13.5 867.1Mhz, SF9BW125, 4/5CR
2020-10-02 12:23:14 15.4375°C 117.375% 3.35V 11275,12,16213,151,25847,131,23773,129,37946,132,61367,131 v255 52.1338 / 6.71252 8 - -118 -3 867.9Mhz, SF9BW125, 4/5CR
2020-10-02 11:51:15 15.5625°C -5.5% 3.36V 11216,12,16221,162,23681,130,23953,129,38879,132,1643,131 v255 52.1338 / 6.71252 6 - -120 -11.2 867.7Mhz, SF9BW125, 4/5CR
2020-10-02 11:19:16 13.5°C 108.062% 3.36V 11105,12,16198,143,22740,127,22947,129,35945,132,57035,131 v255 52.1338 / 6.71252 4 - -118 -13 867.5Mhz, SF9BW125, 4/5CR
2020-10-02 10:47:18 12.9375°C 96.1875% 3.36V 11008,12,16227,153,20889,125,23048,129,36246,131,60726,132 v255 52.1338 / 6.71252 2 - -119 -9 867.3Mhz, SF9BW125, 4/5CR
2020-10-02 10:15:26 11.9375°C 74.5% 3.36V 10981,12,16787,149,18776,122,22832,129,35427,132,56683,131 v255 52.1338 / 6.71252 0 - -120 -7 867.1Mhz, SF9BW125, 4/5CR
2020-10-02 07:18:07 6.3125°C 100.875% 3.28V 11082,25,16584,94,17432,112,20701,130,30046,132,39213,132 v255 52.1338 / 6.71255 1246 - -118 -14.2 868.5Mhz, SF12BW125, 4/5CR
2020-10-02 06:29:29 6.25°C 102.5% 3.36V 11088,25,16608,93,17436,111,20637,130,29931,132,38689,132 v255 52.1338 / 6.71252 1243 - -119 -8.2 867.3Mhz, SF9BW125, 4/5CR
2020-10-02 06:13:30 6.0625°C 103.312% 3.36V 11085,25,16613,93,17499,111,20619,130,30012,132,38448,132 v255 52.1338 / 6.71252 1242 - -120 -13.2 868.1Mhz, SF9BW125, 4/5CR
2020-10-02 04:53:37 5.9375°C 107.188% 3.36V 11072,25,16622,92,17244,112,20487,130,29912,132,37913,132 v255 52.1338 / 6.71252 1237 - -120 -13.8 867.7Mhz, SF9BW125, 4/5CR
2020-10-02 03:17:44 6.4375°C 111.062% 3.36V 11079,25,16616,93,17670,113,20446,131,30127,132,37771,132 v255 52.1338 / 6.71252 1231 - -120 -13.5 867.1Mhz, SF9BW125, 4/5CR
- -119 -13.8 867.1Mhz, SF9BW125, 4/5CR
2020-10-02 01:09:54 7.6875°C 113.312% 3.36V 11048,25,16664,98,17710,117,20349,131,29975,132,36964,132 v255 52.1338 / 6.71252 1223 - -119 -12.8 867.3Mhz, SF9BW125, 4/5CR
- -119 -13 867.3Mhz, SF9BW125, 4/5CR
2020-10-02 00:37:56 8.75°C 112.812% 3.36V 11043,25,16619,104,17901,120,20427,131,30183,132,38258,132 v255 52.1338 / 6.71252 1221 - -120 -13.8 867.1Mhz, SF9BW125, 4/5CR
2020-10-02 00:05:58 9.3125°C 112.875% 3.36V 11040,52,16664,107,18205,121,20450,131,30427,132,40142,132 v255 52.1338 / 6.71252 1219 - -118 -11.2 867.9Mhz, SF9BW125, 4/5CR
2020-10-01 23:34:01 8.875°C 115.125% 3.36V 11052,52,16681,105,17824,120,20303,132,30059,132,40695,132 v255 52.1338 / 6.71252 1217 - -120 -11.8 867.7Mhz, SF9BW125, 4/5CR
2020-10-01 23:02:03 9.0625°C 116.062% 3.36V 11057,52,16699,105,17585,120,20289,132,30054,132,42565,132 v255 52.1338 / 6.71252 1215 - -119 -13.5 867.5Mhz, SF9BW125, 4/5CR
2020-10-01 22:30:05 9.4375°C 116.375% 3.36V 11032,52,16731,107,17494,122,20337,132,30376,132,45273,132 v255 52.1338 / 6.71252 1213 - -120 -12.5 867.3Mhz, SF9BW125, 4/5CR
2020-10-01 21:58:07 9.3125°C 118.125% 3.36V 11055,52,16865,106,17276,122,20265,132,30261,132,48170,132 v255 52.1338 / 6.71252 1211 - -119 -13 867.1Mhz, SF9BW125, 4/5CR
2020-10-01 20:54:12 10.125°C -4.0625% 3.36V 11072,52,17117,109,17565,124,19779,132,33182,132,16800,132 v255 52.1338 / 6.71252 1207 - -120 -8.5 867.7Mhz, SF9BW125, 4/5CR
2020-10-01 20:22:14 11.125°C -2.125% 3.36V 11043,52,17132,112,17362,126,23284,132,42378,132,57644,132 v255 52.1338 / 6.71252 1205 - -118 -9.5 867.5Mhz, SF9BW125, 4/5CR
2020-10-01 19:50:15 12.375°C 0.25% 3.36V 11033,52,16756,119,16934,128,24284,132,33757,132,46247,132 v255 52.1338 / 6.71252 1203 - -120 -13 867.3Mhz, SF9BW125, 4/5CR
2020-10-01 19:18:17 14.375°C -2.125% 3.35V 11029,52,16709,126,17196,130,24759,132,34860,132,49710,132 v255 52.1338 / 6.71252 1201 - -120 -6 867.1Mhz, SF9BW125, 4/5CR
2020-10-01 19:02:17 14.25°C -4.375% 3.36V 11032,52,16728,126,17215,130,24723,132,34818,132,49469,132 v255 52.1338 / 6.71252 1200 - -118 -14 868.1Mhz, SF9BW125, 4/5CR
2020-10-01 18:46:18 14.0625°C -5.75% 3.36V 11020,52,16715,126,17240,131,24699,132,34931,132,50009,132 v255 52.1338 / 6.71252 1199 - -119 -5 867.9Mhz, SF9BW125, 4/5CR
2020-10-01 17:42:21 14°C 117.812% 3.36V 11023,52,16748,128,17353,132,24501,132,34333,132,48078,132 v255 52.1338 / 6.71252 1195 - -117 -14.5 867.5Mhz, SF9BW125, 4/5CR
2020-10-01 16:38:24 14.4375°C -2% 3.36V 11009,52,16686,130,17405,133,24526,132,34384,132,52527,132 v255 52.1338 / 6.71252 1191 - -119 -11.2 867.1Mhz, SF9BW125, 4/5CR
2020-10-01 16:22:24 14.625°C -2.5625% 3.36V 11002,52,16652,131,17444,133,24529,132,34515,132,53445,132 v255 52.1338 / 6.71252 1190 - -113 -13.8 868.3Mhz, SF9BW125, 4/5CR
2020-10-01 15:02:27 15.875°C -2.4375% 3.36V 10971,52,16647,136,17157,134,24501,131,34842,132,54634,132 v255 52.1338 / 6.71252 1185 - -120 -6 867.5Mhz, SF9BW125, 4/5CR
2020-10-01 14:30:27 15.9375°C -2.3125% 3.35V 10973,52,16603,136,17146,135,24387,131,34894,132,55404,132 v255 52.1338 / 6.71252 1183 - -118 -8.5 867.3Mhz, SF9BW125, 4/5CR
- -118 -12.2 867.3Mhz, SF9BW125, 4/5CR
2020-10-01 13:58:28 16.5°C -5.625% 3.36V 10971,68,16603,144,17183,137,24793,131,36368,132,62995,132 v255 52.1338 / 6.71252 1181 - -120 -10 867.1Mhz, SF9BW125, 4/5CR
- -120 -13.5 867.1Mhz, SF9BW125, 4/5CR
2020-10-01 12:54:30 16.125°C -1.6875% 3.36V 10988,68,16606,145,17116,137,25827,131,36601,132,39163,132 v255 52.1338 / 6.71252 1177 - -119 -8.5 867.7Mhz, SF9BW125, 4/5CR
2020-10-01 12:22:31 15.25°C -2.4375% 3.35V 10962,68,16583,140,16916,134,25582,131,35798,132,25447,132 v255 52.1338 / 6.71252 1175 - -118 -12.8 867.5Mhz, SF9BW125, 4/5CR
2020-10-01 11:50:32 14.9375°C -1.25% 3.35V 10965,68,16578,139,16856,134,25192,131,35484,132,15807,132 v255 52.1338 / 6.71252 1173 - -120 -8.5 867.3Mhz, SF9BW125, 4/5CR
- -118 -13.5 867.3Mhz, SF9BW125, 4/5CR
2020-10-01 11:18:33 14.625°C 0.25% 3.36V 10965,68,16588,138,16762,132,25113,131,35296,132,25713,132 v255 52.1338 / 6.71252 1171 - -121 -7.5 867.1Mhz, SF9BW125, 4/5CR
- -119 -12.2 867.1Mhz, SF9BW125, 4/5CR
2020-10-01 11:02:34 14.25°C -0.0625% 3.36V 10970,68,16582,135,16740,132,24905,131,34800,132,12144,132 v255 52.1338 / 6.71252 1170 - -119 -10.5 868.1Mhz, SF9BW125, 4/5CR
2020-10-01 10:46:35 14.1875°C -0.75% 3.36V 10967,68,16588,135,16751,131,24834,131,34751,132,10822,132 v255 52.1338 / 6.71252 1169 - -119 -7.2 867.9Mhz, SF9BW125, 4/5CR
2020-10-01 09:42:38 13.1875°C -2.4375% 3.36V 10953,68,16558,129,16529,128,24465,131,33910,132,60953,132 v255 52.1338 / 6.71252 1165 - -118 -4 867.5Mhz, SF9BW125, 4/5CR
2020-10-01 09:26:38 12.9375°C -1.0625% 3.36V 10953,68,16565,128,16528,128,24347,131,33732,132,60258,132 v255 52.1338 / 6.71252 1164 - -119 -11 868.1Mhz, SF9BW125, 4/5CR
2020-10-01 09:10:39 12.9375°C -2.25% 3.36V 10958,68,16590,127,16506,127,24310,131,33533,132,60678,132 v255 52.1338 / 6.71252 1163 - -119 -7.2 867.3Mhz, SF9BW125, 4/5CR
- -119 -12.5 867.3Mhz, SF9BW125, 4/5CR
2020-10-01 08:38:41 12.5°C -5.25% 3.36V 10982,68,16620,123,16505,126,24109,132,33133,132,56633,132 v255 52.1338 / 6.71252 1161 - -120 -12.5 867.1Mhz, SF9BW125, 4/5CR
2020-10-01 07:34:44 11.375°C 113.062% 3.36V 10983,68,16633,118,16455,125,23830,132,32699,132,56929,132 v255 52.1338 / 6.71252 1157 - -119 -9 867.7Mhz, SF9BW125, 4/5CR
2020-10-01 06:30:48 10.75°C 116.562% 3.36V 11000,52,16640,112,16330,124,23519,132,32238,132,54737,132 v255 52.1338 / 6.71252 1153 - -120 -12.2 867.3Mhz, SF9BW125, 4/5CR
2020-10-01 05:43:36 11.625°C 118.25% 3.35V 11006,68,16611,116,16385,126,23690,132,32633,132,60613,132 v255 52.1338 / 6.71252 1150 - -119 -16.5 868.5Mhz, SF12BW125, 4/5CR
2020-10-01 04:54:56 11.6875°C 115.875% 3.36V 11012,68,16622,117,16489,126,23794,132,32984,132,5516,132 v255 52.1338 / 6.71249 1147 - -118 -10 867.7Mhz, SF9BW125, 4/5CR
2020-10-01 03:51:00 12.125°C 115.25% 3.36V 11008,68,16614,119,16550,127,23838,132,33115,132,3434,132 v255 52.1338 / 6.71249 1143 - -117 -8.5 867.3Mhz, SF9BW125, 4/5CR
2020-10-01 03:19:01 11.9375°C 116.312% 3.36V 11019,68,16638,117,16497,127,23645,132,32835,132,2980,132 v255 52.1338 / 6.71249 1141 - -121 -12.2 867.1Mhz, SF9BW125, 4/5CR
2020-10-01 02:31:04 12.625°C 115.938% 3.36V 11015,68,16651,119,16613,128,23680,132,33314,132,62496,132 v255 52.1338 / 6.71249 1138 - -120 -14.5 868.5Mhz, SF9BW125, 4/5CR
2020-10-01 02:15:04 12.875°C 116% 3.36V 11023,68,16667,120,16587,128,23779,132,33594,132,64323,132 v255 52.1338 / 6.71249 1137 - -119 -9.8 867.7Mhz, SF9BW125, 4/5CR
2020-10-01 01:43:06 13.375°C 116.938% 3.36V 11025,68,16670,122,16530,129,23761,132,33823,132,777,132 v255 52.1338 / 6.71249 1135 - -119 -10.8 867.5Mhz, SF9BW125, 4/5CR
- -119 -13.5 867.5Mhz, SF9BW125, 4/5CR
2020-10-01 01:27:07 13.6875°C 117.312% 3.36V 11026,68,16664,123,16528,129,23825,132,34045,132,61681,132 v255 52.1338 / 6.71249 1134 - -118 -6.2 868.1Mhz, SF9BW125, 4/5CR
2020-10-01 01:11:07 14°C 117.25% 3.36V 11030,68,16669,124,16550,130,23898,132,34211,132,63159,132 v255 52.1338 / 6.71249 1133 - -120 -11.8 867.3Mhz, SF9BW125, 4/5CR
- -119 -13 867.3Mhz, SF9BW125, 4/5CR
2020-10-01 00:39:09 14.125°C 114.062% 3.36V 11026,81,16667,126,16644,131,24043,132,34557,132,63913,132 v255 52.1338 / 6.71249 1131 - -119 -13.8 867.1Mhz, SF9BW125, 4/5CR
2020-09-30 22:31:14 14.625°C 113.062% 3.36V 11041,81,16696,128,16653,132,24211,132,34862,132,56119,132 v255 52.1338 / 6.71249 1123 - -120 -11.5 867.3Mhz, SF9BW125, 4/5CR
2020-09-30 22:15:15 14.625°C 113.438% 3.36V 11044,81,16702,128,16657,132,24176,132,34795,132,63822,132 v255 52.1338 / 6.71249 1122 - -118 -13.5 868.1Mhz, SF9BW125, 4/5CR
2020-09-30 21:59:15 14.625°C 114.625% 3.35V 11052,81,16707,128,16654,133,24140,132,34734,132,59955,132 v255 52.1338 / 6.71249 1121 - -119 -10.8 867.1Mhz, SF9BW125, 4/5CR
- -121 -13.2 867.1Mhz, SF9BW125, 4/5CR
2020-09-30 21:27:17 15.0625°C 116.375% 3.36V 11058,81,16727,130,16664,133,24216,132,35120,132,30873,132 v255 52.1338 / 6.71249 1119 - -120 -13.2 867.9Mhz, SF9BW125, 4/5CR
2020-09-30 20:55:18 15.25°C 116.625% 3.35V 11062,81,16756,131,16726,134,24262,132,35342,132,26743,132 v255 52.1338 / 6.71249 1117 - -120 -9.2 867.7Mhz, SF9BW125, 4/5CR
2020-09-30 20:23:19 15.25°C 116% 3.36V 11063,81,16775,131,16721,134,24322,132,35272,132,0,132 v255 52.1338 / 6.71249 1115 - -119 -14.2 867.5Mhz, SF9BW125, 4/5CR
2020-09-30 19:51:20 15.625°C 118.188% 3.36V 11079,81,16782,131,16633,135,24056,132,35821,132,63639,132 v255 52.1338 / 6.71249 1113 - -120 -8.5 867.3Mhz, SF9BW125, 4/5CR
- -120 -12.5 867.3Mhz, SF9BW125, 4/5CR
2020-09-30 19:19:21 15.625°C 118.812% 3.36V 11082,90,16838,132,16613,135,24137,132,36111,132,30500,132 v255 52.1338 / 6.71249 1111 - -119 -9.5 867.1Mhz, SF9BW125, 4/5CR
2020-09-30 17:43:23 18.1875°C -3.5% 3.36V 11142,90,16928,147,16679,141,24667,131,38872,132,0,132 v255 52.1338 / 6.71249 1105 - -120 -11 867.5Mhz, SF9BW125, 4/5CR
2020-09-30 17:11:23 18.875°C 117.875% 3.35V 11129,99,16852,153,16729,143,24922,131,40043,132,0,132 v255 52.1338 / 6.71249 1103 - -119 -6.2 867.3Mhz, SF9BW125, 4/5CR
2020-09-30 16:39:23 19°C 111.25% 3.36V 11122,99,16804,155,16728,144,24890,131,40564,132,0,132 v255 52.1338 / 6.71249 1101 - -121 -14 867.1Mhz, SF9BW125, 4/5CR
2020-09-30 16:07:23 19.125°C 117.938% 3.35V 11108,106,16761,157,16780,144,25233,131,40711,132,0,132 v255 52.1338 / 6.71249 1099 - -121 -7.8 867.9Mhz, SF9BW125, 4/5CR
2020-09-30 15:03:23 18.625°C -5.375% 3.35V 11149,106,16784,158,16727,144,25268,131,41399,132,0,132 v255 52.1338 / 6.71249 1095 - -120 -7.8 867.5Mhz, SF9BW125, 4/5CR
2020-09-30 14:31:23 18.75°C 117.5% 3.35V 11130,106,16784,162,16713,144,25386,130,41471,132,0,132 v255 52.1338 / 6.71249 1093 - -119 -9.8 867.3Mhz, SF9BW125, 4/5CR
2020-09-30 13:59:23 18.5625°C 118.25% 3.36V 11163,106,16772,162,16549,144,25001,130,41464,132,0,132 v255 52.1338 / 6.71249 1091 - -121 -14 867.1Mhz, SF9BW125, 4/5CR
2020-09-30 13:27:24 18.75°C 118.312% 3.35V 11093,112,16749,172,16331,143,24796,130,42668,132,0,132 v255 52.1338 / 6.71249 1089 - -119 -9.8 867.9Mhz, SF9BW125, 4/5CR
2020-09-30 12:23:24 16.5625°C 118.188% 3.36V 10784,99,16334,152,15764,137,22303,130,35509,132,36400,132 v255 52.1338 / 6.71249 1085 - -119 -8.8 867.5Mhz, SF9BW125, 4/5CR
2020-09-30 10:47:28 14.625°C 102.75% 3.36V 10722,90,16283,139,15631,133,21083,130,32866,132,29503,132 v255 52.1338 / 6.71249 1079 - -119 -13 867.9Mhz, SF9BW125, 4/5CR
2020-09-30 10:31:29 14.375°C 97.8125% 3.36V 10702,90,16256,139,15570,133,20950,130,32594,132,25317,132 v255 52.1338 / 6.71249 1078 - -112 -13 868.5Mhz, SF9BW125, 4/5CR
2020-09-30 09:43:31 13.5625°C 89.5% 3.36V 10681,90,16220,131,15538,130,20377,130,31037,132,2417,132 v255 52.1338 / 6.71249 1075 - -118 -12.2 867.5Mhz, SF9BW125, 4/5CR
2020-09-30 09:27:31 13.75°C 89.5625% 3.36V 10659,90,16208,132,15474,129,20302,130,30856,132,4274,132 v255 52.1338 / 6.71249 1074 - -119 -12 868.1Mhz, SF9BW125, 4/5CR
2020-09-30 04:55:45 12.5625°C 103.25% 3.36V 10652,90,16206,123,15507,126,18798,130,28073,132,55138,133 v255 52.1338 / 6.71249 1057 - -120 -13 867.7Mhz, SF9BW125, 4/5CR
2020-09-30 04:08:37 12.25°C 105.312% 3.36V 10648,81,16192,121,15536,125,18517,130,27266,132,52069,133 v255 52.1338 / 6.71249 1054 - -112 -12.8 868.5Mhz, SF12BW125, 4/5CR
2020-09-29 19:52:18 12.0625°C -0.1875% 3.36V 10613,81,16246,113,15566,125,24790,130,34130,133,8077,133 v255 52.1338 / 6.71255 1023 - -119 -12.8 868.1Mhz, SF9BW125, 4/5CR
2020-09-29 19:20:19 13.125°C -0.75% 3.36V 10600,81,16242,121,15633,128,25259,130,35692,133,51041,133 v255 52.1338 / 6.71255 1021 - -113 -14.8 868.5Mhz, SF9BW125, 4/5CR
2020-09-29 18:48:21 14.0625°C -1.25% 3.36V 10596,81,16246,127,15683,130,25783,130,36653,133,0,134 v255 52.1338 / 6.71255 1019 - -112 -14.5 868.3Mhz, SF9BW125, 4/5CR
2020-09-29 18:16:22 14.6875°C -1.1875% 3.36V 10583,90,16232,133,15783,132,26159,130,38588,134,0,134 v255 52.1338 / 6.71255 1017 - -120 -13.2 868.1Mhz, SF9BW125, 4/5CR
2020-09-29 17:44:23 14.6875°C -1.75% 3.36V 10600,81,16292,132,15943,132,24353,130,46545,134,0,134 v255 52.1338 / 6.71255 1015 - -112 -13 868.5Mhz, SF9BW125, 4/5CR
2020-09-29 16:56:25 14.9375°C -1.5625% 3.36V 10597,81,16145,132,15686,132,22085,130,33344,134,53097,134 v255 52.1338 / 6.71255 1012 - -120 -9.5 867.1Mhz, SF9BW125, 4/5CR
2020-09-29 15:20:28 14.5625°C -4.0625% 3.36V 10578,90,16132,133,15615,131,20925,130,32581,134,36781,134 v255 52.1338 / 6.71255 1006 - -119 -10.2 867.5Mhz, SF9BW125, 4/5CR
2020-09-29 15:04:29 14.4375°C -4% 3.36V 10587,90,16164,132,15575,131,20620,130,32660,134,42979,134 v255 52.1338 / 6.71255 1005 - -119 -11.2 868.1Mhz, SF9BW125, 4/5CR
2020-09-29 13:44:32 13.375°C -1.3125% 3.36V 10559,90,16072,130,15352,130,19657,130,30084,134,0,134 v255 52.1338 / 6.71255 1000 - -119 -11.5 867.9Mhz, SF9BW125, 4/5CR
2020-09-29 12:56:35 12.5°C 0.5625% 3.36V 10600,81,16127,125,15489,127,19058,130,28180,134,0,134 v255 52.1338 / 6.71255 997 - -113 -13.5 868.5Mhz, SF9BW125, 4/5CR
2020-09-29 11:52:38 11.6875°C 3.0625% 3.36V 10717,81,16066,122,15733,126,21537,130,33093,134,0,134 v255 52.1338 / 6.71255 993 - -120 -12 868.1Mhz, SF9BW125, 4/5CR
2020-09-29 11:36:39 11.5625°C 3.25% 3.36V 10719,81,16089,122,16174,126,20707,130,33080,134,0,134 v255 52.1338 / 6.71255 992 - -120 -11.2 867.1Mhz, SF9BW125, 4/5CR
2020-09-29 10:48:42 11.125°C 4.8125% 3.36V 10428,68,15761,119,16086,124,20511,130,36425,133,0,133 v255 52.1338 / 6.71255 989 - -112 -13.8 868.3Mhz, SF9BW125, 4/5CR
2020-09-29 10:32:43 11°C 5.1875% 3.36V 10416,81,15761,118,16720,124,20253,130,39240,133,0,133 v255 52.1338 / 6.71255 988 - -120 -12.2 867.7Mhz, SF9BW125, 4/5CR
2020-09-29 08:02:35 12.375°C 5.1875% 3.36V 1469,123,1469,123,0,123,1537,131,1537,131,0,135 v255 52.1338 / 6.71255 984 - -118 -13.2 867.3Mhz, SF9BW125, 4/5CR
2020-09-27 10:17:48 10.625°C 10.375% 3.36V 10691,99,16254,119,15205,124,20514,130,29565,133,41656,134 v255 52.1338 / 6.71255 980 - -119 -11.8 867.9Mhz, SF9BW125, 4/5CR
2020-09-27 09:13:52 10.25°C 11.3125% 3.36V 10692,99,16259,115,15333,122,20269,129,29226,131,40210,134 v255 52.1338 / 6.71255 976 - -119 -9.8 867.5Mhz, SF9BW125, 4/5CR

Message count: 200
Node count: 1

Messages per node

Number of messages in list aboveNodes
200

Statistics per gateway

GatewayNumber of messagesNumber of nodesNodes
1601
731
21
21
21
21
21
11
11
11

Filter by dataset